Sign in

Advertising

Info

Aviation weather - KDAB

METAR KDAB 232153Z 27018G23KT 10SM BKN060 19/11 A2952 RMK AO2 SLP995 T01890111

TAF KDAB 231727Z 2318/2418 27020G30KT P6SM BKN040 FM232300 27012G18KT P6SM FEW040 FM240600 30010KT P6SM SKC

Aviation weather from ADDS. Re-check weather before flight.

-